Date,TemperatureHighF,TemperatureAvgF,TemperatureLowF,DewpointHighF,DewpointAvgF,DewpointLowF,HumidityHigh,HumidityAvg,HumidityLow,PressureMaxIn,PressureMinIn,WindSpeedMaxMPH,WindSpeedAvgMPH,GustSpeedMaxMPH,PrecipitationSumIn
2014-1-1,44,40,36,42,40,35,97,96,94,30.49,30.33,3,0,0,0.01
2014-1-2,50,48,45,45,44,42,95,86,77,30.16,29.97,5,3,12,0.42
2014-1-3,46,41,38,42,38,36,95,88,73,30.44,30.07,5,1,10,0.02
2014-1-4,44,38,33,37,34,31,97,88,67,30.55,30.44,3,1,5,0.00
2014-1-5,45,36,30,36,32,28,96,86,67,30.58,30.41,4,1,7,0.01
2014-1-6,47,39,32,38,34,30,94,82,53,30.41,30.21,4,1,7,0.00
2014-1-7,47,44,40,45,42,34,97,94,71,30.21,30.07,5,1,7,0.47
2014-1-8,49,47,46,47,46,42,96,93,88,30.09,29.75,7,3,13,0.48
2014-1-9,48,45,42,46,42,39,95,89,82,30.07,29.78,8,4,15,0.14
2014-1-10,52,48,47,48,44,42,93,86,80,30.16,29.63,12,6,26,0.18
2014-1-11,56,47,41,50,44,39,96,89,80,29.86,29.42,16,7,25,1.17
2014-1-12,51,47,41,48,43,38,93,88,81,30.37,29.86,8,3,16,0.09
2014-1-13,52,50,50,48,47,46,90,88,86,30.70,30.38,10,4,18,0.00
2014-1-14,51,49,47,48,47,45,95,91,87,30.74,30.66,2,0,7,0.00
2014-1-15,50,46,42,46,43,40,97,91,77,30.70,30.59,3,1,0,0.00
2014-1-16,42,40,39,41,40,38,97,97,94,30.59,30.49,4,2,4,0.00
2014-1-17,41,38,36,40,37,35,97,97,95,30.44,30.27,4,2,0,0.00
2014-1-18,45,39,33,41,37,32,97,94,85,30.35,30.25,4,0,0,0.00
2014-1-19,42,39,34,41,38,33,97,95,92,30.40,30.25,4,2,6,0.00
2014-1-20,49,40,36,42,38,35,96,89,72,30.43,30.34,3,1,6,0.00
2014-1-21,47,40,34,42,38,33,97,92,78,30.42,30.28,6,1,10,0.01
2014-1-22,49,45,42,45,43,40,97,92,84,30.52,30.42,5,2,9,0.03
2014-1-23,49,42,37,42,39,35,96,89,74,30.55,30.45,7,3,9,0.00
2014-1-24,55,42,35,44,38,33,96,86,66,30.50,30.36,4,0,7,0.01
2014-1-25,53,40,32,42,35,31,97,85,47,30.47,30.35,2,0,6,0.00
2014-1-26,44,37,33,40,34,32,96,91,78,30.35,30.24,2,0,6,0.01
2014-1-27,43,38,33,40,36,32,97,94,83,30.31,30.20,1,0,0,0.00
2014-1-28,49,46,42,44,42,38,95,86,75,30.31,29.97,5,0,0,0.36
2014-1-29,50,46,43,49,45,42,97,96,93,29.96,29.70,5,2,0,0.86
2014-1-30,46,44,42,44,40,39,96,87,76,30.00,29.88,8,4,0,0.01
2014-1-31,44,41,37,40,38,34,96,91,78,30.24,30.00,3,1,0,0.22
2014-2-1,44,40,35,41,38,34,96,93,83,30.26,30.16,2,0,0,0.03
2014-2-2,45,37,30,37,32,25,97,85,59,30.16,30.03,5,1,9,0.01
2014-2-3,39,35,31,28,24,20,85,64,49,30.28,30.09,6,2,11,0.00
2014-2-4,36,31,28,24,19,10,81,61,44,30.51,30.28,6,2,10,0.00
2014-2-5,30,25,20,10,4,0,49,40,30,30.57,30.42,7,4,12,0.00
2014-2-6,29,25,19,17,6,1,64,45,32,30.42,29.87,7,3,10,0.00
2014-2-7,37,30,24,22,18,14,74,63,44,30.03,29.85,6,2,9,0.00
2014-2-8,40,34,28,30,21,14,93,62,43,30.10,29.92,7,2,11,0.00
2014-2-9,38,35,31,35,32,29,94,90,85,30.17,30.03,2,0,4,0.12
2014-2-10,50,43,36,47,41,34,96,93,86,30.14,30.06,8,3,15,0.60
2014-2-11,52,48,45,46,44,43,94,87,72,30.22,29.65,9,3,18,0.60
2014-2-12,53,50,44,49,42,38,95,77,58,29.97,29.54,14,5,23,0.03
2014-2-17,48,43,39,42,39,37,95,88,72,30.04,29.81,8,4,0,0.28
2014-2-18,48,44,41,44,40,36,94,86,72,30.06,29.65,10,5,0,0.58
2014-2-19,47,42,39,38,37,36,89,82,68,30.23,29.96,6,4,0,0.01
2014-2-20,50,45,40,42,40,37,93,82,66,30.32,30.10,7,4,0,0.12
2014-2-21,42,40,38,39,37,35,94,89,77,30.40,30.31,4,1,0,0.08
2014-2-22,41,38,34,38,36,33,96,93,84,30.35,30.11,6,1,0,0.20
2014-2-23,44,40,37,41,38,36,96,91,84,30.13,30.02,4,1,0,0.23
2014-2-24,38,37,37,37,36,36,97,96,96,30.14,30.11,3,2,6,0.03
2014-2-25,54,45,38,43,38,34,96,78,55,30.21,30.06,9,4,8,0.01
2014-2-26,57,49,43,42,37,34,87,65,50,30.06,29.77,5,2,0,0.00
2014-2-27,53,47,41,42,40,37,88,76,62,29.83,29.70,4,1,3,0.00
2014-2-28,55,47,42,45,38,29,92,72,51,29.82,29.58,8,2,13,0.00
2014-3-1,43,40,36,34,31,28,87,70,56,29.76,29.61,5,2,9,0.05
2014-3-2,48,41,38,47,39,34,97,93,79,29.80,29.61,8,2,15,0.91
2014-3-3,56,50,46,50,46,44,95,87,67,29.96,29.74,8,4,18,0.35
2014-3-4,53,49,42,50,47,41,97,94,88,30.03,29.88,6,2,9,0.41
2014-3-5,59,53,49,54,51,48,96,92,80,29.88,29.50,7,3,15,1.51
2014-3-6,55,52,50,50,47,46,93,86,76,30.13,29.55,10,5,17,0.25
2014-3-7,60,52,46,47,45,42,89,77,54,30.35,30.13,7,3,13,0.00
2014-3-8,54,48,43,53,45,40,97,90,69,30.19,29.81,6,1,11,1.23
2014-3-9,59,53,49,52,49,47,95,88,71,30.10,29.88,7,2,17,0.18
2014-3-10,52,47,45,47,45,42,96,91,81,30.53,30.01,5,1,7,0.54
2014-3-11,57,47,40,44,41,39,97,81,55,30.67,30.52,3,1,5,0.00
2014-3-12,62,48,37,43,39,32,96,74,33,30.51,30.23,5,1,7,0.00
2014-3-13,58,48,40,46,42,38,95,79,54,30.25,30.08,4,1,7,0.02
2014-3-14,58,52,47,49,45,40,94,80,54,30.41,29.96,9,4,15,0.10
2014-3-15,62,51,44,51,42,40,86,74,50,30.41,30.24,7,2,11,0.01
2014-3-16,52,46,41,50,45,39,96,94,91,30.28,30.05,7,2,0,1.35
2014-3-17,50,44,40,40,38,35,96,81,60,30.42,30.07,5,2,0,0.03
2014-3-18,50,45,40,44,40,36,87,82,73,30.42,30.24,3,1,0,0.00
2014-3-19,52,44,38,44,41,36,94,89,73,30.29,30.09,9,4,0,0.19
2014-3-20,51,43,35,38,35,31,94,77,48,30.44,30.29,5,2,0,0.00
2014-3-21,51,43,35,38,36,32,93,76,58,30.44,30.36,5,2,0,0.00
2014-3-22,52,43,33,38,34,28,95,73,40,30.40,30.28,3,1,2,0.00
2014-3-23,55,46,41,40,38,36,87,72,51,30.42,30.33,5,2,7,0.00
2014-3-24,69,53,40,42,39,35,89,62,35,30.32,29.95,4,1,6,0.00
2014-3-25,58,52,47,50,42,33,90,72,41,29.96,29.59,9,3,19,0.28
2014-3-26,51,46,44,45,42,40,91,86,79,29.70,29.60,4,2,11,0.11
2014-3-27,56,48,44,46,44,42,94,84,66,29.96,29.64,8,2,12,0.03
2014-3-28,53,49,46,50,45,41,93,88,80,29.97,29.75,7,3,10,0.50
2014-3-29,52,48,46,46,44,42,93,86,77,29.89,29.76,6,3,12,0.51
2014-3-30,55,48,42,44,41,39,92,78,58,30.07,29.89,9,4,18,0.00
2014-3-31,64,49,36,45,39,33,94,72,31,30.06,29.79,6,2,7,0.00
2014-4-1,60,51,43,44,41,36,90,71,43,29.98,29.79,4,2,7,0.00
2014-4-2,59,50,46,44,41,36,88,72,43,30.09,29.98,6,2,11,0.00
2014-4-3,57,49,44,47,42,37,89,78,48,30.08,29.95,8,3,13,0.09
2014-4-4,57,50,44,43,42,39,89,75,52,30.05,29.98,9,4,15,0.00
2014-4-5,53,50,46,50,46,43,94,88,78,30.17,30.03,6,2,11,0.24
2014-4-6,54,49,47,46,45,44,93,87,74,30.35,30.17,4,2,6,0.00
2014-4-7,72,60,51,52,49,45,92,71,39,30.38,30.13,4,1,0,0.00
2014-4-8,61,54,46,53,49,45,94,83,65,30.23,30.12,7,3,0,0.37
2014-4-9,46,45,43,44,42,41,94,92,90,30.30,30.23,4,2,2,0.05
2014-4-10,58,50,44,42,40,36,83,69,46,30.36,30.23,5,3,0,0.00
2014-4-11,62,52,42,47,43,40,90,74,57,30.24,30.10,6,3,0,0.00
2014-4-12,60,52,45,48,43,41,88,73,60,30.25,30.14,6,3,0,0.00
2014-4-13,69,56,42,45,38,32,92,57,26,30.38,30.24,4,2,0,0.00
2014-4-14,69,54,43,45,38,31,75,56,25,30.24,30.11,7,2,0,0.00
2014-4-15,60,52,45,45,42,36,90,70,42,30.28,30.14,6,3,0,0.09
2014-4-16,53,50,48,50,47,45,93,90,83,30.15,30.04,8,3,6,0.25
2014-4-17,54,51,44,51,49,43,95,93,87,29.99,29.77,8,3,10,0.97
2014-4-18,58,49,43,42,40,36,95,74,43,30.20,29.98,6,3,11,0.14
2014-4-19,54,48,42,49,43,37,92,83,63,30.24,29.83,9,3,16,0.31
2014-4-20,61,53,46,44,40,35,87,65,42,30.37,30.20,6,2,9,0.00
2014-4-21,64,52,47,48,44,42,93,75,48,30.20,29.91,7,2,13,0.11
2014-4-22,55,47,41,45,41,39,93,82,56,29.97,29.90,10,3,14,0.49
2014-4-23,54,48,44,48,43,41,93,83,65,29.97,29.72,7,4,13,0.17
2014-4-24,57,52,47,50,46,41,93,79,58,29.97,29.66,10,5,18,0.20
2014-4-25,60,50,42,44,40,38,93,71,49,29.97,29.89,5,2,11,0.00
2014-4-26,60,50,43,44,39,31,91,69,36,29.92,29.71,9,3,15,0.21
2014-4-27,54,49,45,44,42,40,91,78,62,30.18,29.71,10,5,16,0.02
2014-4-28,62,52,42,43,39,35,89,65,37,30.43,30.18,5,2,8,0.00
2014-4-29,77,62,46,47,38,30,83,48,19,30.56,30.43,7,2,12,0.00
2014-4-30,84,70,54,49,39,31,55,34,16,30.45,30.21,6,3,10,0.00
2014-5-1,87,70,53,50,46,36,76,45,17,30.21,29.99,6,2,8,0.00
2014-5-2,70,63,55,55,49,40,81,61,36,30.11,29.96,8,3,13,0.01
2014-5-3,61,54,50,52,48,44,95,82,55,30.00,29.80,8,3,12,1.14
2014-5-4,58,52,48,52,49,47,95,90,74,29.93,29.80,6,3,12,0.32
2014-5-5,60,54,50,51,49,47,94,84,65,30.09,29.93,7,3,11,0.03
2014-5-6,62,55,49,50,47,43,91,76,54,30.12,30.05,5,2,9,0.02
2014-5-7,67,56,44,49,45,42,93,70,42,30.12,29.93,4,1,9,0.00
2014-5-8,58,53,49,53,48,43,94,84,64,29.95,29.70,7,2,13,0.48
2014-5-9,58,52,48,48,46,43,89,80,61,30.08,29.79,8,5,16,0.00
2014-5-10,60,52,46,49,46,43,93,79,59,30.34,30.08,4,1,7,0.01
2014-5-11,67,55,45,49,47,43,95,75,47,30.42,30.33,3,1,6,0.00
2014-5-12,78,64,48,51,42,31,92,54,21,30.43,30.32,7,2,12,0.00
2014-5-13,80,67,56,53,48,41,70,51,34,30.44,30.34,5,2,8,0.00
2014-5-14,81,69,55,55,51,46,80,55,36,30.38,30.16,4,1,6,0.00
2014-5-15,81,70,58,56,52,36,83,54,30,30.16,29.99,6,2,13,0.00
2014-5-16,68,61,55,50,49,46,79,67,50,30.17,30.10,8,3,12,0.00
2014-5-17,69,60,54,52,49,45,89,69,46,30.14,29.93,5,2,11,0.00
2014-5-18,67,58,50,53,50,48,91,77,50,29.97,29.87,9,2,16,0.00
2014-5-19,69,60,53,52,50,44,88,70,42,30.13,29.97,4,2,8,0.00
2014-5-20,71,61,52,54,50,48,87,70,49,30.21,30.13,5,3,8,0.00
2014-5-21,68,58,52,52,50,47,85,73,56,30.25,30.19,4,2,6,0.00
2014-5-22,76,65,54,58,54,50,88,70,51,30.21,30.06,4,2,6,0.00
2014-5-23,68,62,57,60,56,52,93,83,70,30.20,30.02,8,2,11,0.18
2014-5-24,66,60,56,54,52,50,85,75,61,30.26,30.18,4,2,8,0.00
2014-5-25,62,56,53,54,51,48,93,83,63,30.20,30.06,5,1,6,0.20
2014-5-26,66,59,53,54,49,43,94,72,46,30.24,30.06,9,4,16,0.01
2014-5-27,68,58,48,49,45,41,89,64,39,30.24,30.13,5,2,7,0.00
2014-5-28,66,57,52,52,48,43,86,72,44,30.22,30.14,7,2,13,0.06
2014-5-29,63,57,52,49,48,46,82,72,54,30.30,30.22,5,3,8,0.00
2014-5-30,69,59,49,52,48,45,86,69,49,30.24,30.05,7,3,15,0.00
2014-5-31,75,63,50,52,49,46,89,62,40,30.15,30.07,4,2,8,0.00
2014-6-1,72,62,53,54,51,49,87,70,50,30.17,30.04,4,2,0,0.00
2014-6-2,76,64,53,56,53,50,91,69,46,30.04,29.90,6,2,0,0.00
2014-6-3,64,58,53,53,50,48,85,75,64,30.16,29.95,7,3,0,0.00
2014-6-4,67,59,53,54,51,49,88,76,61,30.21,30.15,5,2,0,0.00
2014-6-5,73,61,49,52,48,43,91,67,35,30.24,30.13,4,1,0,0.00
2014-6-6,76,64,51,51,48,41,86,59,29,30.20,30.13,6,2,0,0.00
2014-6-7,74,63,55,56,52,49,87,69,42,30.26,30.17,6,3,10,0.00
2014-6-8,75,63,54,58,54,51,91,75,49,30.29,30.13,6,2,10,0.00
2014-6-9,69,61,55,54,50,46,90,70,50,30.22,30.13,8,3,10,0.02
2014-6-10,66,58,51,52,49,45,83,72,59,30.20,30.15,4,2,10,0.00
2014-6-11,74,62,50,53,50,45,90,66,37,30.15,29.89,5,2,10,0.00
2014-6-12,70,60,55,54,51,48,86,73,49,29.93,29.85,9,3,14,0.01
2014-6-13,59,56,53,55,51,46,94,86,67,30.17,29.92,7,3,15,0.36
2014-6-14,62,57,53,54,50,46,93,78,67,30.18,30.05,7,2,10,0.15
2014-6-15,63,54,50,55,50,47,95,87,68,30.05,29.91,6,2,10,0.35
2014-6-16,64,55,48,51,48,44,94,78,50,30.04,29.93,4,2,10,0.18
2014-6-17,65,57,50,54,51,48,94,81,64,30.19,30.04,5,2,12,0.12
2014-6-18,67,59,54,52,50,48,84,73,57,30.19,30.08,5,2,10,0.00
2014-6-19,76,64,54,57,53,50,87,69,45,30.09,30.00,8,3,15,0.00
2014-6-20,66,59,52,56,48,44,91,70,50,30.24,30.08,6,3,10,0.05
2014-6-21,71,61,50,51,46,43,78,60,44,30.22,30.09,5,2,11,0.00
2014-6-22,76,64,52,53,48,43,78,56,39,30.18,30.05,5,2,10,0.00
2014-6-23,78,66,57,58,51,47,83,60,41,30.14,30.05,5,2,10,0.00
2014-6-24,75,65,59,59,56,54,89,74,49,30.18,30.08,6,2,10,0.00
2014-6-25,76,67,57,61,58,55,94,75,59,30.09,29.83,5,2,10,0.00
2014-6-26,71,64,60,60,57,50,92,78,65,29.88,29.83,8,3,17,0.05
2014-6-27,70,62,56,60,56,51,91,80,61,29.96,29.79,10,3,18,0.12
2014-6-28,69,62,57,59,56,52,93,80,63,30.10,29.95,8,4,15,0.06
2014-6-29,70,62,56,57,54,52,90,75,57,30.30,30.10,6,2,10,0.00
2014-6-30,76,65,54,59,55,51,92,73,51,30.31,30.08,5,3,11,0.00
2014-7-1,92,76,60,61,57,52,82,56,26,30.08,29.77,6,3,10,0.00
2014-7-2,81,70,60,59,56,51,77,64,37,30.08,29.81,7,3,12,0.00
2014-7-3,70,63,58,57,53,48,88,71,58,30.17,30.08,5,2,10,0.00
2014-7-4,73,63,56,55,52,48,82,66,48,30.14,30.06,5,2,10,0.00
2014-7-5,75,66,56,58,55,51,89,70,44,30.20,30.10,5,1,10,0.00
2014-7-6,84,71,62,63,59,56,85,68,47,30.22,30.16,6,2,11,0.00
2014-7-7,80,70,63,65,62,58,92,78,59,30.20,30.08,5,3,10,0.00
2014-7-8,84,72,59,62,59,54,92,66,46,30.13,30.01,5,2,10,0.00
2014-7-9,81,69,57,61,56,52,83,64,43,30.08,29.97,4,2,10,0.00
2014-7-10,82,70,58,59,56,48,91,64,35,30.03,29.93,5,2,10,0.00
2014-7-11,87,74,59,60,56,53,83,57,32,30.06,29.97,5,1,10,0.00
2014-7-12,89,76,63,63,59,53,84,59,36,30.15,30.06,4,2,10,0.00
2014-7-13,86,75,62,64,58,50,70,55,45,30.16,30.06,4,2,10,0.00
2014-7-14,85,72,63,64,60,58,83,68,43,30.19,30.10,6,2,10,0.00
2014-7-15,86,73,61,63,60,55,91,66,39,30.17,30.02,5,2,10,0.00
2014-7-16,88,74,61,63,58,53,80,57,36,30.07,29.94,4,2,10,0.00
2014-7-17,80,67,58,60,56,54,89,70,44,30.09,29.99,6,3,10,0.00
2014-7-18,76,66,56,60,55,51,86,69,53,30.16,30.07,7,3,10,0.00
2014-7-19,76,67,61,64,60,57,89,80,65,30.13,29.98,10,4,16,0.00
2014-7-20,65,59,56,59,55,53,94,87,69,30.05,30.00,5,2,9,0.07
2014-7-21,75,64,56,56,53,50,91,69,43,30.11,30.02,4,1,8,0.02
2014-7-22,70,63,56,60,56,53,89,79,66,30.15,30.06,3,1,8,0.01
2014-7-23,65,61,57,62,59,54,96,92,82,30.13,30.00,6,2,10,1.07
2014-7-24,62,58,56,59,55,53,94,88,84,30.29,30.12,6,2,11,0.14
2014-7-25,74,64,56,58,55,52,92,74,52,30.27,30.14,5,2,8,0.00
2014-7-26,78,66,56,59,55,52,86,68,49,30.23,30.17,5,2,9,0.00
2014-7-27,81,69,58,60,55,49,82,63,34,30.25,30.12,6,3,11,0.00
2014-7-28,86,73,58,59,55,50,84,55,30,30.18,30.10,5,2,9,0.00
2014-7-29,83,72,60,59,55,51,79,57,38,30.20,30.10,6,2,12,0.00
2014-7-30,82,71,59,60,55,47,86,60,36,30.21,30.12,7,2,13,0.00
2014-7-31,85,73,62,61,52,45,63,50,37,30.17,30.06,6,3,11,0.00
2014-8-3,85,73,62,63,60,58,90,67,42,30.13,29.97,4,1,0,0.00
2014-8-4,89,75,61,60,57,53,82,56,32,30.05,29.95,5,2,0,0.00
2014-8-5,78,68,59,60,57,54,89,71,49,30.14,30.01,5,2,0,0.00
2014-8-6,79,68,61,62,59,53,93,74,51,30.21,30.10,4,2,0,0.00
2014-8-7,79,68,59,60,56,50,86,68,47,30.16,30.06,6,2,0,0.00
2014-8-8,78,67,58,56,53,48,80,62,35,30.19,30.11,6,2,0,0.00
2014-8-9,79,68,58,58,52,49,74,58,40,30.22,30.14,6,3,10,0.00
2014-8-10,85,72,58,61,55,50,83,57,39,30.19,30.03,6,2,0,0.00
2014-8-11,95,78,64,65,60,54,84,56,28,30.04,29.84,5,1,0,0.00
2014-8-12,80,73,68,66,62,58,93,70,48,29.95,29.85,6,2,0,0.17
2014-8-13,73,66,60,65,61,59,95,85,65,30.07,29.93,6,3,3,0.86
2014-8-14,69,65,60,63,61,58,95,87,75,30.09,30.02,3,1,5,0.00
2014-8-15,72,67,63,64,63,62,95,86,72,30.12,30.02,4,1,5,0.05
2014-8-16,78,69,63,64,62,59,89,78,62,30.18,30.12,4,2,7,0.00
2014-8-17,80,70,62,64,61,59,90,75,55,30.18,30.09,5,2,8,0.00
2014-8-18,84,72,61,66,62,57,88,71,53,30.10,29.88,4,2,8,0.00
2014-8-19,83,72,64,65,60,54,84,67,48,29.89,29.82,5,2,8,0.00
2014-8-20,72,64,59,57,54,52,80,70,58,30.06,29.89,7,3,12,0.00
2014-8-21,69,60,56,55,53,52,88,79,58,30.11,30.05,6,2,9,0.00
2014-8-22,75,65,56,60,56,52,88,73,56,30.16,30.05,5,2,0,0.00
2014-8-23,81,69,58,60,58,54,94,70,41,30.21,30.05,4,1,0,0.00
2014-8-24,78,66,60,60,57,55,87,74,51,30.05,29.95,4,1,0,0.00
2014-8-25,84,70,58,61,58,55,90,67,41,30.09,30.00,4,1,0,0.00
2014-8-26,87,74,61,62,58,53,86,60,33,30.11,30.00,4,1,0,0.00
2014-8-27,86,73,63,63,59,56,83,63,41,30.10,30.03,5,2,10,0.00
2014-8-28,74,66,60,62,59,56,90,78,63,30.17,30.07,5,2,9,0.00
2014-8-29,72,66,60,60,58,53,92,78,59,30.06,29.98,5,2,9,0.00
2014-8-30,65,62,59,61,58,56,92,87,80,30.04,29.94,3,1,7,0.21
2014-8-31,71,62,56,58,55,53,94,80,55,30.14,30.04,5,2,8,0.07
2014-9-1,75,65,57,57,55,52,89,73,52,30.16,30.03,5,2,10,0.00
2014-9-2,68,62,56,58,56,53,94,82,66,30.04,29.84,9,3,13,0.65
2014-9-3,70,61,55,56,53,50,95,78,49,30.17,29.94,5,2,11,0.08
2014-9-4,74,62,51,57,53,49,94,73,43,30.21,30.11,6,2,11,0.00
2014-9-5,79,63,56,59,54,53,89,75,45,30.22,30.15,5,3,10,0.00
2014-9-6,87,71,57,58,53,47,88,57,29,30.11,29.89,4,1,7,0.00
2014-9-7,85,70,58,58,53,43,85,59,24,29.95,29.84,3,1,6,0.00
2014-9-8,68,62,58,59,56,54,91,81,68,30.00,29.89,5,2,8,0.00
2014-9-9,71,63,57,58,55,52,91,77,57,30.20,30.00,4,1,9,0.00
2014-9-10,70,61,56,57,50,35,92,70,32,30.29,30.18,5,2,10,0.00
2014-9-11,76,63,52,44,39,33,72,43,23,30.37,30.19,5,2,10,0.00
2014-9-12,74,63,51,49,40,32,56,43,23,30.19,30.02,7,2,11,0.00
2014-9-13,81,66,51,50,45,38,78,49,23,30.05,29.90,4,1,10,0.00
2014-9-14,84,68,53,51,47,41,78,51,23,29.97,29.88,4,1,6,0.00
2014-9-15,86,69,55,55,50,46,84,55,27,29.94,29.82,3,1,6,0.00
2014-9-16,72,65,58,58,56,50,85,73,58,29.96,29.86,6,2,9,0.00
2014-9-17,72,65,60,62,58,56,89,80,68,29.93,29.74,5,1,7,0.01
2014-9-18,67,64,61,60,59,58,95,86,76,30.03,29.77,6,2,12,0.04
2014-9-19,76,68,63,60,59,57,85,74,54,30.17,30.03,6,2,12,0.00
2014-9-20,76,65,57,62,58,55,95,80,59,30.17,29.94,6,3,9,0.00
2014-9-21,83,68,57,61,58,55,95,74,44,30.00,29.88,5,2,10,0.00
2014-9-22,72,65,61,60,58,56,92,79,60,30.06,29.96,5,2,7,0.00
2014-9-23,67,63,60,62,59,56,94,88,79,29.98,29.74,5,2,10,0.44
2014-9-24,65,62,59,62,60,57,96,92,86,29.93,29.75,5,2,9,1.10
2014-9-25,70,61,58,60,57,55,95,88,60,29.95,29.88,7,1,8,0.44
2014-9-26,69,61,57,59,56,54,93,84,68,30.17,29.95,7,2,11,0.28
2014-9-27,69,60,54,58,55,51,96,83,55,30.20,30.15,6,2,10,0.00
2014-9-28,66,58,56,58,55,53,94,88,74,30.16,30.00,3,1,7,0.00
2014-9-29,62,57,53,59,55,52,97,94,82,30.04,29.93,4,2,0,0.28
2014-9-30,65,58,54,55,53,50,95,84,63,30.23,30.04,4,1,0,0.00
2014-10-1,66,58,53,54,51,48,93,79,60,30.30,30.22,4,1,0,0.00
2014-10-2,68,58,51,53,49,45,91,72,48,30.37,30.27,4,1,0,0.00
2014-10-3,72,59,48,55,50,46,92,75,45,30.37,30.21,2,0,0,0.00
2014-10-4,65,58,56,58,55,53,91,87,79,30.26,30.23,2,0,0,0.00
2014-10-5,74,62,54,62,57,53,96,84,65,30.22,30.12,3,1,0,0.00
2014-10-6,77,64,56,64,59,55,97,84,60,30.14,30.03,6,1,0,0.01
2014-10-7,69,62,58,62,59,56,97,91,78,30.04,29.97,3,1,0,0.00
2014-10-8,69,60,56,60,57,55,95,90,72,30.09,30.01,3,1,0,0.00
2014-10-9,66,58,53,59,56,53,97,92,78,30.13,30.06,3,1,0,0.01
2014-10-10,64,58,53,57,55,52,97,89,77,30.14,30.07,5,2,0,0.02
2014-10-11,66,59,55,58,56,53,95,89,66,30.25,30.06,6,2,3,0.50
2014-10-12,64,58,54,56,54,52,96,86,65,30.32,30.11,4,1,7,0.01
2014-10-13,70,60,53,57,53,49,93,78,49,30.11,29.71,7,2,12,0.11
2014-10-14,62,57,53,55,53,51,95,88,72,29.90,29.60,9,2,9,0.63
2014-10-15,60,56,54,54,52,49,94,89,79,29.98,29.57,7,3,10,0.47
2014-10-16,69,60,53,52,48,44,86,68,48,30.10,29.86,7,2,0,0.00
2014-10-17,63,60,56,56,51,43,91,74,49,29.90,29.78,7,2,13,0.12
2014-10-18,64,61,58,62,58,55,95,92,84,30.03,29.86,3,1,6,0.19
2014-10-19,73,63,57,60,57,55,96,83,62,29.87,29.73,7,1,12,0.01
2014-10-20,63,59,54,58,56,52,95,88,76,29.86,29.74,4,2,9,0.43
2014-10-21,61,57,54,53,52,49,93,81,66,29.99,29.86,8,3,15,0.08
2014-10-22,60,56,54,56,53,49,95,89,68,29.79,29.63,7,2,10,1.54
2014-10-23,59,53,50,52,49,45,93,86,71,30.07,29.76,7,3,16,0.22
2014-10-24,58,53,48,50,48,45,92,84,71,30.12,29.80,6,2,11,0.20
2014-10-25,62,54,47,56,50,46,96,88,69,29.80,29.32,13,3,22,0.44
2014-10-26,54,51,45,51,46,43,95,85,77,30.22,29.78,7,3,16,0.08
2014-10-27,60,52,45,49,46,42,95,81,56,30.24,30.02,4,1,7,0.01
2014-10-28,59,55,50,55,51,44,95,87,71,30.03,29.90,6,3,14,0.53
2014-10-29,63,57,52,54,53,50,93,86,71,30.20,30.00,6,2,13,0.07
2014-10-30,63,57,53,56,53,50,95,88,64,30.08,29.79,8,2,10,1.00
2014-10-31,54,52,49,52,50,48,96,95,89,29.95,29.75,3,1,7,1.64
2014-11-1,52,49,45,49,47,44,97,93,81,30.12,29.91,2,0,7,0.01
2014-11-2,56,51,46,51,48,44,95,90,74,30.22,30.12,4,1,7,0.17
2014-11-3,57,55,53,54,53,51,95,92,86,30.18,30.07,5,3,10,0.43
2014-11-4,58,55,53,55,52,48,95,89,82,30.35,30.05,6,2,11,0.03
2014-11-5,59,56,53,56,53,50,97,90,81,30.35,30.02,4,1,7,0.28
2014-11-6,62,56,52,57,53,48,97,88,73,30.36,29.83,11,4,21,0.29
2014-11-7,57,51,45,49,45,41,93,80,55,30.55,30.36,4,1,7,0.00
2014-11-8,54,47,40,47,44,39,97,89,75,30.46,30.11,2,0,7,0.00
2014-11-9,52,49,47,50,47,45,95,92,87,30.14,29.88,7,2,12,0.27
2014-11-10,50,46,40,46,42,37,95,86,67,30.27,30.11,5,2,10,0.00
2014-11-11,46,39,33,39,24,11,96,59,31,30.44,30.24,8,2,12,0.00
2014-11-12,45,37,32,13,9,5,43,32,20,30.44,30.18,6,2,9,0.00
2014-11-13,46,38,31,19,11,6,45,33,22,30.18,30.04,4,2,9,0.00
2014-11-14,44,36,30,23,17,10,65,46,25,30.38,30.09,6,2,7,0.00
2014-11-15,46,37,28,24,17,12,78,46,27,30.61,30.38,5,1,7,0.00
2014-11-16,50,39,31,26,19,12,64,46,29,30.59,30.44,5,2,8,0.00
2014-11-17,54,40,32,32,26,20,78,60,29,30.48,30.26,2,0,7,0.00
2014-11-18,48,40,34,36,29,22,90,68,44,30.26,30.15,2,0,7,0.00
2014-11-19,53,44,37,40,34,28,91,68,45,30.15,29.89,2,0,3,0.00
2014-11-20,52,48,43,49,45,32,95,90,58,30.05,29.94,2,0,3,0.09
2014-11-21,54,50,48,50,47,44,95,89,76,29.97,29.36,6,2,12,0.53
2014-11-22,51,47,46,45,43,42,90,86,81,30.20,29.57,6,3,15,0.00
2014-11-23,52,48,46,49,46,43,94,90,86,30.43,30.13,8,3,14,0.55
2014-11-24,53,47,42,52,43,39,95,88,78,30.44,30.14,5,2,10,0.02
2014-11-25,57,52,48,55,51,47,97,94,90,30.30,30.18,9,2,20,0.40
2014-11-26,60,58,56,54,54,52,92,87,81,30.22,29.92,8,3,13,0.00
2014-11-27,59,57,54,53,51,46,91,81,62,29.93,29.73,9,5,19,0.05
2014-11-28,55,45,37,52,43,36,96,93,86,29.73,29.54,8,4,13,1.70
2014-11-29,40,31,26,38,26,14,95,82,51,30.29,29.60,10,3,18,0.00
2014-11-30,36,28,22,27,23,20,93,81,61,30.32,30.19,6,2,9,0.00
2014-12-1,40,31,26,27,23,19,89,73,53,30.32,30.18,2,0,6,0.00
2014-12-2,41,33,28,31,28,26,92,82,66,30.31,30.01,7,3,10,0.01
2014-12-3,48,39,33,35,30,27,83,72,46,30.01,29.83,5,1,7,0.01
2014-12-4,47,43,40,43,39,33,95,85,74,30.02,29.85,2,0,3,0.06
2014-12-5,57,49,43,49,45,42,96,88,60,30.05,29.82,8,1,10,0.14
2014-12-6,54,50,47,50,48,45,95,90,81,30.31,29.87,7,2,11,0.20
2014-12-7,58,50,44,48,45,40,94,83,52,30.31,30.04,4,1,11,0.00
2014-12-8,60,52,49,49,46,43,91,79,54,30.13,29.91,9,2,15,0.44
2014-12-9,62,57,51,56,52,48,95,86,76,29.96,29.77,8,3,17,0.50
2014-12-10,68,58,52,54,50,44,93,76,46,29.76,29.31,9,5,24,0.59
2014-12-11,58,52,48,50,46,41,94,78,62,29.64,29.20,14,4,18,0.42
2014-12-12,53,50,46,47,45,44,92,83,77,30.12,29.58,8,2,13,0.01
2014-12-13,51,45,40,46,43,37,96,92,80,30.31,30.12,5,0,9,0.00
2014-12-14,54,43,33,42,34,29,97,75,44,30.30,30.07,5,2,13,0.01
2014-12-15,55,51,42,33,30,27,60,46,39,30.06,29.90,8,4,13,0.00
2014-12-16,52,49,44,43,36,30,79,62,42,29.92,29.89,7,2,12,0.00
2014-12-17,49,46,43,45,42,36,95,87,72,29.99,29.87,3,0,4,0.14
2014-12-18,50,47,44,47,45,43,95,92,85,30.02,29.79,7,2,8,0.52
2014-12-19,51,48,46,47,44,39,95,84,71,30.03,29.85,6,2,11,0.11
2014-12-20,57,49,45,53,46,42,96,91,81,29.93,29.50,12,5,18,0.49
2014-12-21,55,52,50,51,48,46,92,86,80,30.18,29.60,6,2,10,0.00
2014-12-22,51,47,42,47,42,38,94,83,71,30.45,30.18,3,1,4,0.00
2014-12-23,55,46,41,51,43,38,95,88,73,30.39,30.13,9,3,13,1.37
2014-12-24,44,41,40,41,40,39,96,94,88,30.13,29.97,5,1,12,0.20
2014-12-25,47,42,39,42,40,38,96,92,80,30.38,30.13,4,1,5,0.34
2014-12-26,44,40,38,40,38,36,96,93,82,30.47,30.36,2,0,4,0.00
2014-12-27,49,44,42,45,42,39,95,92,86,30.40,30.09,9,3,14,0.29
2014-12-28,44,40,38,41,39,37,95,93,86,30.29,30.15,5,1,6,0.19
2014-12-29,43,37,30,37,31,26,96,80,56,30.81,30.24,6,2,8,0.01
2014-12-30,37,31,26,27,21,16,87,67,45,30.94,30.81,4,1,7,0.00
2014-12-31,38,32,27,26,24,22,85,72,55,30.82,30.50,5,1,7,0.00
2015-1-1,42,34,28,31,27,24,84,76,57,30.50,30.28,3,0,4,0.00
2015-1-2,42,38,33,40,34,28,94,85,73,30.30,30.17,6,1,9,0.02